Airfield :
LOGIN :

Register | Disclaimer

   EN    FR    IT 

 










Legend :    VFR   Marginal VFR   IFR   Intensive IFR   Very Intensive IFR
Visi :
Ceiling :
>= 8 km
>= 3000ft
5 to 8 km
1000 to 3000 ft
1500m to 5 km
500 to 1000 ft
800 to 1500m
200 to 500 ft
< 800m
< 200 ft
Symbols :   Thunderstorms  Fog  Heavy snow  Heavy precipitations  Wind > 20 kt
SIGMETs :     Misc.  Thunderstorms  Icing  Turbulence  Mountain Waves  Volcanic Ashes






- Airport Elevation : 788 ft
- IATA code : DCM


LFCK - Castres-Mazamet

CURRENT METAR :
  • 212300Z AUTO 01005KT CAVOK 05/M02 Q1020

EXPIRED METARs :
  • 212230Z AUTO 31004KT CAVOK 06/M02 Q1020
  • 212200Z AUTO 31003KT CAVOK 07/M02 Q1021
  • 212130Z AUTO 30005KT CAVOK 08/M02 Q1020
  • 212100Z AUTO 32007KT CAVOK 08/M02 Q1020 NOSIG
  • 212030Z AUTO 33010KT CAVOK 09/M02 Q1020 BECMG 27004KT
  • 212000Z AUTO 34012KT CAVOK 10/M02 Q1020 NOSIG
  • 211930Z AUTO 34014KT 310V010 CAVOK 10/M02 Q1019 NOSIG
  • 211830Z AUTO 34019KT 310V020 CAVOK 12/M00 Q1018 TEMPO 33016G26KT
  • 211800Z AUTO 34019KT CAVOK 14/00 Q1017 TEMPO 33016G26KT

TAF TAF LFCK
Valid from the 21 at 18:00 until the 22 at 03:00 UTC


211700Z 2118/2203 34010KT CAVOK
TEMPO 2118/2120 33016G26KT
BECMG 2122/2124 27004KT



MET'MAP, your aeronautical weather chart ! - Copyright ORBIFLY December 2007 - Disclaimer

ORBIFLY MET'MAP TEAM :

Programming & Development : Alexandra Zaïnal
Original concept : Baudouin d'Aumeries
Technical & hardware support : Manuel Goepfert
Assistance : Marc-Olivier Méhu




SOURCES & CREDITS :

   NOAA